createdAt,value
2019-05-16T00:02:22.101Z,12.00
2019-05-16T00:04:52.215Z,12.00
2019-05-16T00:07:23.167Z,12.00
2019-05-16T00:09:54.517Z,12.00
2019-05-16T00:12:25.259Z,12.00
2019-05-16T00:14:58.078Z,12.00
2019-05-16T00:17:28.640Z,12.00
2019-05-16T00:19:59.519Z,12.00
2019-05-16T00:22:29.572Z,12.00
2019-05-16T00:24:59.970Z,12.00
2019-05-16T00:27:30.916Z,12.00
2019-05-16T00:30:01.856Z,12.00
2019-05-16T00:32:33.977Z,12.00
2019-05-16T00:35:09.332Z,12.00
2019-05-16T00:37:40.826Z,12.00
2019-05-16T00:40:13.203Z,12.00
2019-05-16T00:42:43.940Z,12.00
2019-05-16T00:45:15.018Z,12.00
2019-05-16T00:47:48.037Z,12.00
2019-05-16T00:50:18.476Z,12.00
2019-05-16T00:52:50.384Z,12.00
2019-05-16T00:55:21.056Z,12.00
2019-05-16T00:57:52.891Z,12.00
2019-05-16T01:00:54.162Z,12.00
2019-05-16T01:03:25.694Z,12.00
2019-05-16T01:05:58.265Z,12.10
2019-05-16T01:08:29.421Z,12.10
2019-05-16T01:11:00.374Z,12.10
2019-05-16T01:13:31.720Z,12.10
2019-05-16T01:16:02.887Z,12.10
2019-05-16T01:18:33.352Z,12.10
2019-05-16T01:21:04.542Z,12.10
2019-05-16T01:23:35.286Z,12.00
2019-05-16T01:26:07.962Z,11.90
2019-05-16T01:28:38.405Z,11.90
2019-05-16T01:31:09.286Z,11.90
2019-05-16T01:33:40.284Z,11.90
2019-05-16T01:36:11.240Z,11.90
2019-05-16T01:38:41.648Z,12.00
2019-05-16T01:41:12.503Z,11.90
2019-05-16T01:43:43.390Z,11.90
2019-05-16T01:46:14.399Z,11.90
2019-05-16T01:48:45.128Z,11.90
2019-05-16T01:51:15.656Z,12.00
2019-05-16T01:53:48.642Z,11.90
2019-05-16T01:56:19.121Z,12.00
2019-05-16T01:58:49.900Z,11.90
2019-05-16T02:01:21.276Z,11.90
2019-05-16T02:03:53.857Z,11.90
2019-05-16T02:06:24.321Z,11.90
2019-05-16T02:08:55.291Z,11.90
2019-05-16T02:11:28.375Z,11.90
2019-05-16T02:13:58.659Z,11.90
2019-05-16T02:16:29.816Z,11.90
2019-05-16T02:19:01.153Z,11.90
2019-05-16T02:21:31.493Z,11.90
2019-05-16T02:24:02.254Z,11.80
2019-05-16T02:26:32.973Z,11.80
2019-05-16T02:29:03.292Z,11.80
2019-05-16T02:31:33.824Z,11.80
2019-05-16T02:34:05.117Z,11.70
2019-05-16T02:36:36.320Z,11.70
2019-05-16T02:39:11.281Z,11.70
2019-05-16T02:41:45.625Z,11.70
2019-05-16T02:44:13.256Z,11.70
2019-05-16T02:46:44.403Z,11.70
2019-05-16T02:49:14.865Z,11.70
2019-05-16T02:51:45.262Z,11.70
2019-05-16T02:54:15.351Z,11.70
2019-05-16T02:56:45.511Z,11.70
2019-05-16T02:59:16.246Z,11.70
2019-05-16T03:01:47.192Z,11.70
2019-05-16T03:04:21.123Z,11.60
2019-05-16T03:06:51.346Z,11.60
2019-05-16T03:09:23.652Z,11.50
2019-05-16T03:11:55.873Z,11.50
2019-05-16T03:14:27.193Z,11.40
2019-05-16T03:17:01.097Z,11.40
2019-05-16T03:19:36.422Z,11.40
2019-05-16T03:22:11.446Z,11.40
2019-05-16T03:24:42.276Z,11.30
2019-05-16T03:27:13.808Z,11.30
2019-05-16T03:29:44.377Z,11.30
2019-05-16T03:32:15.091Z,11.30
2019-05-16T03:34:46.457Z,11.30
2019-05-16T03:37:17.063Z,11.30
2019-05-16T03:39:51.262Z,11.30
2019-05-16T03:42:20.698Z,11.30
2019-05-16T03:44:51.685Z,11.30
2019-05-16T03:47:22.801Z,11.30
2019-05-16T03:49:54.164Z,11.30
2019-05-16T03:52:24.891Z,11.30
2019-05-16T03:54:55.626Z,11.40
2019-05-16T03:57:26.513Z,11.40
2019-05-16T03:59:57.109Z,11.40
2019-05-16T04:02:30.676Z,11.40
2019-05-16T04:05:02.065Z,11.40
2019-05-16T04:07:32.073Z,11.40
2019-05-16T04:10:02.423Z,11.40
2019-05-16T04:12:33.598Z,11.40
2019-05-16T04:15:05.039Z,11.40
2019-05-16T04:17:36.835Z,11.40
2019-05-16T04:20:11.638Z,11.50
2019-05-16T04:22:41.187Z,11.50
2019-05-16T04:25:13.305Z,11.50
2019-05-16T04:27:43.627Z,11.50
2019-05-16T04:30:13.792Z,11.50
2019-05-16T04:32:44.896Z,11.50
2019-05-16T04:35:14.724Z,11.50
2019-05-16T04:37:47.194Z,11.50
2019-05-16T04:40:18.138Z,11.50
2019-05-16T04:42:51.053Z,11.50
2019-05-16T04:45:22.085Z,11.50
2019-05-16T04:47:53.410Z,11.60
2019-05-16T04:50:24.371Z,11.60
2019-05-16T04:52:55.109Z,11.60
2019-05-16T04:55:25.237Z,11.70
2019-05-16T04:57:56.178Z,11.70
2019-05-16T05:00:31.610Z,11.70
2019-05-16T05:03:01.364Z,11.80
2019-05-16T05:05:33.357Z,11.80
2019-05-16T05:08:04.417Z,11.80
2019-05-16T05:10:35.345Z,11.90
2019-05-16T05:13:05.211Z,11.90
2019-05-16T05:15:36.269Z,12.00
2019-05-16T05:18:06.565Z,12.00
2019-05-16T05:20:37.739Z,12.10
2019-05-16T05:23:09.853Z,12.10
2019-05-16T05:25:41.002Z,12.10
2019-05-16T05:28:13.598Z,12.20
2019-05-16T05:30:44.787Z,12.20
2019-05-16T05:33:17.257Z,12.20
2019-05-16T05:35:50.787Z,12.20
2019-05-16T05:38:21.816Z,12.30
2019-05-16T05:40:52.679Z,12.30
2019-05-16T05:43:24.834Z,12.40
2019-05-16T05:45:55.777Z,12.40
2019-05-16T05:48:26.047Z,12.50
2019-05-16T05:50:56.581Z,12.50
2019-05-16T05:53:27.102Z,12.60
2019-05-16T05:56:00.492Z,12.80
2019-05-16T05:58:30.813Z,12.90
2019-05-16T06:01:02.043Z,13.00
2019-05-16T06:03:33.012Z,13.10
2019-05-16T06:06:04.573Z,13.20
2019-05-16T06:08:36.103Z,13.20
2019-05-16T06:11:06.435Z,13.20
2019-05-16T06:13:37.098Z,13.30
2019-05-16T06:16:07.976Z,13.40
2019-05-16T06:18:39.666Z,13.50
2019-05-16T06:21:11.578Z,13.60
2019-05-16T06:23:43.412Z,13.70
2019-05-16T06:26:15.383Z,13.70
2019-05-16T06:28:50.635Z,13.70
2019-05-16T06:31:22.308Z,13.80
2019-05-16T06:33:53.119Z,13.90
2019-05-16T06:36:24.004Z,14.00
2019-05-16T06:38:54.389Z,14.10
2019-05-16T06:41:25.125Z,14.20
2019-05-16T06:43:56.273Z,14.20
2019-05-16T06:46:26.750Z,14.20
2019-05-16T06:48:59.662Z,14.30
2019-05-16T06:51:30.661Z,14.30
2019-05-16T06:54:01.985Z,14.40
2019-05-16T06:56:33.044Z,14.50
2019-05-16T06:59:03.701Z,14.70
2019-05-16T07:01:34.717Z,14.80
2019-05-16T07:04:05.593Z,14.90
2019-05-16T07:06:53.877Z,15.10
2019-05-16T07:09:10.514Z,15.30
2019-05-16T07:11:41.525Z,15.60
2019-05-16T07:14:12.436Z,15.70
2019-05-16T07:16:43.869Z,15.70
2019-05-16T07:19:14.186Z,15.50
2019-05-16T07:21:44.727Z,15.40
2019-05-16T07:24:17.026Z,15.20
2019-05-16T07:26:50.115Z,15.00
2019-05-16T07:29:21.694Z,15.00
2019-05-16T07:31:52.804Z,15.00
2019-05-16T07:34:23.357Z,15.10
2019-05-16T07:36:53.946Z,15.10
2019-05-16T07:39:24.116Z,15.30
2019-05-16T07:41:55.342Z,15.30
2019-05-16T07:44:26.080Z,15.30
2019-05-16T07:46:56.611Z,15.20
2019-05-16T07:49:27.432Z,15.20
2019-05-16T07:51:57.186Z,15.20
2019-05-16T07:54:34.038Z,15.30
2019-05-16T07:57:11.524Z,15.30
2019-05-16T07:59:32.152Z,15.10
2019-05-16T08:02:03.088Z,14.90
2019-05-16T08:04:33.626Z,14.90
2019-05-16T08:07:05.827Z,14.90
2019-05-16T08:09:37.151Z,14.90
2019-05-16T08:12:10.404Z,15.10
2019-05-16T08:14:40.970Z,15.20
2019-05-16T08:17:11.710Z,15.20
2019-05-16T08:19:42.589Z,15.40
2019-05-16T08:22:13.921Z,15.70
2019-05-16T08:24:43.963Z,15.80
2019-05-16T08:27:14.560Z,16.00
2019-05-16T08:29:45.847Z,16.20
2019-05-16T08:32:17.282Z,16.40
2019-05-16T08:34:51.229Z,16.60
2019-05-16T08:39:53.597Z,16.60
2019-05-16T08:42:24.540Z,16.40
2019-05-16T08:44:55.273Z,16.30
2019-05-16T08:47:26.231Z,16.40
2019-05-16T08:49:56.959Z,16.40
2019-05-16T08:50:05.959Z,16.60
2019-05-16T08:52:31.241Z,16.50
2019-05-16T08:57:33.536Z,16.60
2019-05-16T09:00:06.226Z,16.70
2019-05-16T09:02:37.286Z,16.80
2019-05-16T09:05:13.140Z,17.00
2019-05-16T09:07:47.511Z,17.20
2019-05-16T09:10:49.843Z,17.60
2019-05-16T09:12:52.241Z,18.10
2019-05-16T09:15:23.187Z,18.60
2019-05-16T09:17:53.725Z,18.50
2019-05-16T09:18:30.747Z,16.50
2019-05-16T09:20:24.259Z,18.80
2019-05-16T09:22:54.319Z,19.20
2019-05-16T09:25:27.511Z,19.60
2019-05-16T09:27:58.716Z,19.60
2019-05-16T09:30:30.070Z,19.50
2019-05-16T09:33:01.216Z,19.80
2019-05-16T09:35:31.657Z,20.20
2019-05-16T09:38:02.699Z,20.40
2019-05-16T09:40:33.158Z,20.40
2019-05-16T09:43:03.826Z,20.50
2019-05-16T09:45:35.007Z,20.70
2019-05-16T09:48:08.134Z,21.00
2019-05-16T09:50:40.892Z,21.30
2019-05-16T09:53:11.237Z,21.40
2019-05-16T09:55:41.685Z,21.50
2019-05-16T09:58:17.706Z,21.40
2019-05-16T10:00:47.606Z,21.40
2019-05-16T10:03:22.579Z,22.10
2019-05-16T10:05:51.940Z,23.20
2019-05-16T10:08:22.621Z,24.60
2019-05-16T10:10:52.951Z,25.20
2019-05-16T10:13:23.424Z,25.50
2019-05-16T10:15:54.022Z,26.10
2019-05-16T10:18:27.517Z,26.70
2019-05-16T10:20:59.227Z,27.30
2019-05-16T10:23:29.308Z,27.80
2019-05-16T10:25:59.886Z,27.70
2019-05-16T10:28:30.780Z,28.00
2019-05-16T10:31:01.525Z,28.00
2019-05-16T10:33:33.099Z,27.70
2019-05-16T10:36:03.606Z,27.30
2019-05-16T10:38:37.265Z,26.50
2019-05-16T10:41:07.427Z,25.80
2019-05-16T10:43:39.191Z,25.40
2019-05-16T10:46:10.866Z,25.40
2019-05-16T10:48:41.368Z,26.00
2019-05-16T10:51:12.067Z,26.30
2019-05-16T10:54:04.494Z,26.30
2019-05-16T10:56:15.086Z,26.50
2019-05-16T10:59:05.011Z,27.10
2019-05-16T11:01:26.571Z,28.10
2019-05-16T11:03:50.476Z,29.00
2019-05-16T11:06:25.703Z,29.60
2019-05-16T11:08:57.068Z,29.50
2019-05-16T11:11:27.492Z,29.20
2019-05-16T11:13:59.025Z,29.10
2019-05-16T11:16:29.964Z,28.40
2019-05-16T11:19:14.375Z,27.80
2019-05-16T11:21:32.483Z,27.30
2019-05-16T11:24:03.269Z,26.60
2019-05-16T11:26:36.649Z,25.50
2019-05-16T11:29:07.753Z,24.60
2019-05-16T11:31:38.906Z,23.80
2019-05-16T11:34:09.651Z,23.50
2019-05-16T11:36:40.172Z,23.30
2019-05-16T11:39:10.533Z,23.10
2019-05-16T11:41:41.444Z,22.80
2019-05-16T11:44:11.852Z,22.50
2019-05-16T11:46:43.132Z,22.40
2019-05-16T11:49:16.644Z,22.20
2019-05-16T11:51:47.687Z,22.10
2019-05-16T11:54:18.566Z,22.20
2019-05-16T11:56:49.768Z,22.50
2019-05-16T11:59:20.725Z,22.80
2019-05-16T12:01:51.665Z,23.10
2019-05-16T12:04:22.329Z,23.70
2019-05-16T12:06:53.549Z,24.20
2019-05-16T12:09:32.174Z,24.60
2019-05-16T12:12:04.085Z,24.80
2019-05-16T12:14:29.147Z,25.40
2019-05-16T12:16:59.987Z,25.80
2019-05-16T12:19:34.055Z,26.90
2019-05-16T12:22:02.889Z,27.80
2019-05-16T12:24:38.792Z,28.10
2019-05-16T12:27:08.227Z,27.80
2019-05-16T12:29:39.203Z,27.20
2019-05-16T12:32:09.943Z,26.50
2019-05-16T12:34:46.348Z,26.10
2019-05-16T12:37:17.371Z,25.80
2019-05-16T12:39:48.312Z,25.50
2019-05-16T12:42:18.977Z,25.20
2019-05-16T12:44:50.017Z,25.20
2019-05-16T12:47:20.586Z,25.70
2019-05-16T12:49:50.925Z,26.00
2019-05-16T12:52:21.171Z,25.90
2019-05-16T12:54:51.892Z,26.10
2019-05-16T12:57:27.726Z,26.70
2019-05-16T12:59:57.047Z,27.90
2019-05-16T13:02:27.736Z,29.30
2019-05-16T13:04:57.803Z,29.20
2019-05-16T13:07:28.889Z,28.70
2019-05-16T13:09:59.635Z,27.80
2019-05-16T13:12:30.412Z,28.20
2019-05-16T13:15:01.016Z,28.80
2019-05-16T13:17:32.051Z,29.30
2019-05-16T13:20:02.795Z,29.50
2019-05-16T13:22:33.293Z,29.50
2019-05-16T13:25:07.369Z,29.70
2019-05-16T13:27:39.124Z,29.50
2019-05-16T13:30:12.784Z,29.60
2019-05-16T13:32:43.909Z,30.00
2019-05-16T13:35:16.932Z,29.50
2019-05-16T13:37:47.788Z,28.80
2019-05-16T13:40:18.664Z,28.00
2019-05-16T13:42:49.669Z,28.60
2019-05-16T13:45:21.030Z,29.40
2019-05-16T13:47:51.790Z,29.80
2019-05-16T13:50:21.836Z,29.30
2019-05-16T13:52:51.958Z,29.10
2019-05-16T13:55:23.780Z,28.30
2019-05-16T13:57:53.898Z,27.60
2019-05-16T14:00:27.737Z,26.80
2019-05-16T14:02:56.893Z,26.20
2019-05-16T14:05:27.557Z,25.90
2019-05-16T14:07:58.002Z,25.60
2019-05-16T14:10:29.837Z,25.10
2019-05-16T14:13:01.068Z,24.50
2019-05-16T14:15:31.606Z,24.00
2019-05-16T14:18:02.885Z,23.60
2019-05-16T14:20:33.567Z,23.40
2019-05-16T14:23:03.864Z,23.30
2019-05-16T14:25:37.589Z,23.10
2019-05-16T14:28:08.709Z,22.90
2019-05-16T14:30:39.851Z,22.90
2019-05-16T14:33:13.723Z,22.90
2019-05-16T14:35:43.172Z,22.80
2019-05-16T14:38:14.111Z,22.50
2019-05-16T14:40:49.851Z,22.30
2019-05-16T14:43:17.281Z,22.20
2019-05-16T14:45:49.364Z,21.90
2019-05-16T14:48:20.201Z,21.70
2019-05-16T14:50:51.271Z,21.60
2019-05-16T14:53:22.177Z,21.40
2019-05-16T14:55:52.303Z,21.20
2019-05-16T14:58:23.177Z,20.90
2019-05-16T15:00:57.323Z,20.70
2019-05-16T15:03:27.258Z,20.50
2019-05-16T15:05:59.086Z,20.20
2019-05-16T15:08:30.350Z,19.90
2019-05-16T15:11:00.739Z,19.70
2019-05-16T15:13:30.797Z,19.40
2019-05-16T15:16:00.947Z,19.20
2019-05-16T15:18:32.071Z,19.00
2019-05-16T15:21:03.018Z,18.90
2019-05-16T15:23:33.436Z,18.80
2019-05-16T15:26:08.971Z,18.60
2019-05-16T15:28:37.776Z,18.40
2019-05-16T15:31:09.475Z,18.20
2019-05-16T15:33:39.820Z,18.10
2019-05-16T15:36:10.887Z,18.10
2019-05-16T15:38:41.667Z,18.00
2019-05-16T15:41:12.613Z,18.00
2019-05-16T15:43:43.385Z,18.00
2019-05-16T15:46:17.089Z,18.00
2019-05-16T15:48:48.898Z,17.90
2019-05-16T15:51:21.715Z,17.90
2019-05-16T15:53:52.579Z,18.00
2019-05-16T15:56:26.974Z,18.00
2019-05-16T15:58:57.823Z,18.00
2019-05-16T16:01:27.946Z,17.90
2019-05-16T16:03:58.890Z,17.80
2019-05-16T16:06:29.774Z,17.60
2019-05-16T16:09:00.775Z,17.40
2019-05-16T16:11:32.763Z,17.20
2019-05-16T16:14:06.807Z,16.90
2019-05-16T16:16:37.095Z,16.80
2019-05-16T16:19:08.044Z,16.70
2019-05-16T16:21:38.918Z,16.60
2019-05-16T16:24:10.125Z,16.40
2019-05-16T16:26:41.020Z,16.30
2019-05-16T16:29:12.224Z,16.10
2019-05-16T16:31:43.366Z,16.00
2019-05-16T16:34:14.034Z,15.90
2019-05-16T16:36:47.392Z,15.80
2019-05-16T16:39:18.035Z,15.60
2019-05-16T16:41:48.942Z,15.50
2019-05-16T16:44:20.003Z,15.40
2019-05-16T16:46:51.893Z,15.40
2019-05-16T16:49:23.035Z,15.30
2019-05-16T16:51:53.782Z,15.20
2019-05-16T16:54:23.773Z,15.10
2019-05-16T16:56:54.474Z,15.10
2019-05-16T16:59:27.974Z,15.10
2019-05-16T17:01:57.674Z,15.00
2019-05-16T17:04:29.239Z,14.90
2019-05-16T17:07:00.261Z,14.90
2019-05-16T17:09:31.412Z,15.00
2019-05-16T17:12:01.978Z,15.00
2019-05-16T17:14:33.086Z,14.90
2019-05-16T17:17:03.821Z,14.80
2019-05-16T17:19:36.594Z,14.70
2019-05-16T17:22:17.152Z,14.70
2019-05-16T17:24:38.838Z,14.70
2019-05-16T17:27:09.300Z,14.70
2019-05-16T17:29:40.159Z,14.70
2019-05-16T17:32:10.806Z,14.70
2019-05-16T17:34:41.751Z,14.70
2019-05-16T17:37:12.802Z,14.70
2019-05-16T17:39:43.778Z,14.50
2019-05-16T17:42:16.437Z,14.50
2019-05-16T17:44:47.389Z,14.40
2019-05-16T17:47:18.410Z,14.30
2019-05-16T17:49:49.007Z,14.30
2019-05-16T17:52:19.278Z,14.20
2019-05-16T17:54:53.151Z,14.00
2019-05-16T17:57:23.629Z,13.90
2019-05-16T17:59:54.406Z,13.80
2019-05-16T18:02:26.734Z,13.70
2019-05-16T18:04:57.300Z,13.50
2019-05-16T18:07:28.418Z,13.50
2019-05-16T18:09:59.573Z,13.40
2019-05-16T18:12:30.240Z,13.30
2019-05-16T18:15:01.275Z,13.40
2019-05-16T18:17:31.816Z,13.40
2019-05-16T18:20:02.937Z,13.30
2019-05-16T18:22:33.266Z,13.30
2019-05-16T18:25:04.207Z,13.20
2019-05-16T18:27:37.408Z,13.10
2019-05-16T18:30:07.444Z,13.00
2019-05-16T18:32:38.696Z,13.00
2019-05-16T18:35:16.851Z,12.90
2019-05-16T18:37:47.521Z,12.90
2019-05-16T18:40:19.325Z,12.80
2019-05-16T18:42:50.860Z,12.80
2019-05-16T18:45:21.785Z,12.80
2019-05-16T18:47:52.945Z,12.80
2019-05-16T18:50:23.721Z,12.70
2019-05-16T18:52:56.961Z,12.80
2019-05-16T18:55:27.803Z,12.80
2019-05-16T18:57:59.117Z,12.80
2019-05-16T19:00:31.321Z,12.80
2019-05-16T19:03:02.285Z,12.70
2019-05-16T19:05:34.454Z,12.70
2019-05-16T19:08:07.306Z,12.70
2019-05-16T19:10:39.249Z,12.70
2019-05-16T19:13:12.507Z,12.70
2019-05-16T19:15:43.349Z,12.80
2019-05-16T19:18:16.931Z,12.80
2019-05-16T19:20:48.934Z,12.80
2019-05-16T19:23:20.079Z,12.80
2019-05-16T19:25:51.569Z,12.80
2019-05-16T19:28:21.963Z,12.80
2019-05-16T19:30:52.696Z,12.70
2019-05-16T19:33:23.849Z,12.70
2019-05-16T19:35:56.567Z,12.70
2019-05-16T19:38:29.279Z,12.70
2019-05-16T19:40:59.763Z,12.70
2019-05-16T19:43:31.103Z,12.70
2019-05-16T19:46:01.989Z,12.70
2019-05-16T19:48:32.525Z,12.70
2019-05-16T19:51:03.316Z,12.70
2019-05-16T19:53:33.719Z,12.70
2019-05-16T19:56:04.309Z,12.70
2019-05-16T19:58:37.084Z,12.70
2019-05-16T20:01:07.705Z,12.70
2019-05-16T20:03:38.601Z,12.70
2019-05-16T20:06:09.117Z,12.70
2019-05-16T20:08:40.530Z,12.70
2019-05-16T20:11:11.481Z,12.70
2019-05-16T20:13:41.949Z,12.70
2019-05-16T20:16:12.755Z,12.60
2019-05-16T20:18:43.905Z,12.60
2019-05-16T20:21:16.426Z,12.60
2019-05-16T20:23:47.253Z,12.60
2019-05-16T20:26:18.777Z,12.50
2019-05-16T20:28:49.423Z,12.50
2019-05-16T20:31:20.661Z,12.50
2019-05-16T20:33:51.554Z,12.50
2019-05-16T20:36:22.073Z,12.60
2019-05-16T20:38:55.434Z,12.60
2019-05-16T20:41:27.336Z,12.50
2019-05-16T20:43:58.864Z,12.50
2019-05-16T20:46:29.598Z,12.50
2019-05-16T20:49:00.332Z,12.50
2019-05-16T20:51:31.481Z,12.50
2019-05-16T20:54:02.633Z,12.50
2019-05-16T20:56:33.571Z,12.50
2019-05-16T20:59:07.022Z,12.50
2019-05-16T21:01:38.124Z,12.50
2019-05-16T21:04:09.256Z,12.50
2019-05-16T21:06:40.153Z,12.40
2019-05-16T21:09:10.888Z,12.40
2019-05-16T21:11:42.069Z,12.40
2019-05-16T21:14:13.253Z,12.40
2019-05-16T21:16:43.580Z,12.30
2019-05-16T21:19:16.304Z,12.30
2019-05-16T21:21:47.176Z,12.30
2019-05-16T21:24:18.652Z,12.30
2019-05-16T21:26:50.007Z,12.30
2019-05-16T21:29:21.784Z,12.30
2019-05-16T21:31:52.306Z,12.20
2019-05-16T21:34:22.799Z,12.20
2019-05-16T21:36:53.172Z,12.20
2019-05-16T21:39:26.400Z,12.20
2019-05-16T21:41:59.244Z,12.20
2019-05-16T21:44:29.142Z,12.20
2019-05-16T21:46:59.755Z,12.10
2019-05-16T21:49:30.696Z,12.10
2019-05-16T21:52:02.310Z,12.10
2019-05-16T21:54:33.669Z,12.10
2019-05-16T21:57:04.412Z,12.00
2019-05-16T21:59:37.041Z,12.00
2019-05-16T22:02:09.372Z,12.00
2019-05-16T22:04:41.346Z,12.00
2019-05-16T22:07:13.094Z,12.00
2019-05-16T22:09:46.617Z,12.00
2019-05-16T22:12:18.156Z,12.00
2019-05-16T22:14:53.499Z,11.90
2019-05-16T22:17:24.253Z,11.90
2019-05-16T22:19:56.388Z,11.90
2019-05-16T22:22:29.813Z,11.90
2019-05-16T22:24:59.273Z,11.80
2019-05-16T22:27:30.275Z,11.80
2019-05-16T22:30:01.527Z,11.80
2019-05-16T22:32:32.503Z,11.80
2019-05-16T22:35:03.099Z,11.80
2019-05-16T22:37:46.864Z,11.70
2019-05-16T22:40:06.824Z,11.70
2019-05-16T22:42:38.795Z,11.70
2019-05-16T22:45:12.541Z,11.70
2019-05-16T22:47:43.758Z,11.60
2019-05-16T22:50:17.590Z,11.60
2019-05-16T22:52:48.301Z,11.50
2019-05-16T22:55:20.931Z,11.50
2019-05-16T22:57:52.051Z,11.50
2019-05-16T23:00:28.095Z,11.50
2019-05-16T23:02:58.631Z,11.50
2019-05-16T23:05:29.567Z,11.50
2019-05-16T23:08:05.919Z,11.50
2019-05-16T23:10:33.911Z,11.50
2019-05-16T23:13:06.488Z,11.40
2019-05-16T23:15:37.854Z,11.50
2019-05-16T23:18:08.621Z,11.40
2019-05-16T23:20:39.323Z,11.50
2019-05-16T23:23:09.857Z,11.40
2019-05-16T23:25:40.987Z,11.40
2019-05-16T23:28:12.122Z,11.40
2019-05-16T23:30:42.636Z,11.40
2019-05-16T23:33:13.433Z,11.40
2019-05-16T23:35:46.879Z,11.40
2019-05-16T23:38:20.012Z,11.40
2019-05-16T23:40:49.739Z,11.40
2019-05-16T23:43:20.067Z,11.40
2019-05-16T23:45:51.418Z,11.30
2019-05-16T23:48:21.959Z,11.30
2019-05-16T23:50:52.898Z,11.30
2019-05-16T23:53:24.051Z,11.30
2019-05-16T23:55:56.719Z,11.30
2019-05-16T23:58:27.574Z,11.30
